Time;durP1;ratioP1;P1;durP2;ratioP2;P2;SDS_P1;SDS_P2;PMS_P1;PMS_P2;Temp;Humidity;BMP_temperature;BMP_pressure;BME280_temperature;BME280_humidity;BME280_pressure;Samples;Min_cycle;Max_cycle;Signal;HPM_P1;HPM_P2
2023/06/13 00:01:58;;;;;;;;;;;;;;;16.28;54.42;100515.42;108186;1254;60255;-83
2023/06/13 00:04:25;;;;;;;;;;;;;;;16.27;54.45;100513.02;108088;1254;60392;-84
2023/06/13 00:06:54;;;;;;;;;;;;;;;16.25;54.30;100513.63;108153;1254;73841;-84
2023/06/13 00:09:22;;;;;;;;;;;;;;;16.26;54.36;100509.66;108144;1254;71401;-83
2023/06/13 00:11:52;;;;;;;;;;;;;;;16.23;54.15;100505.70;108010;1254;71157;-84
2023/06/13 00:14:19;;;;;;;;;;;;;;;16.23;54.11;100502.27;108049;1254;60250;-85
2023/06/13 00:16:50;;;;;;;;;;;;;;;16.23;54.30;100505.48;108010;1254;60529;-83
2023/06/13 00:19:17;;;;;;;;;;;;;;;16.25;54.28;100504.80;108116;1254;72333;-81
2023/06/13 00:21:45;;;;;;;;;;;;;;;16.23;54.02;100503.43;107950;1254;71973;-81
2023/06/13 00:24:11;;;;;;;;;;;;;;;16.22;53.97;100498.48;108050;1254;71851;-81
2023/06/13 00:26:39;;;;;;;;;;;;;;;16.21;54.13;100499.69;108093;1254;61839;-81
2023/06/13 00:29:06;;;;;;;;;;;;;;;16.21;54.10;100500.13;108050;1254;60280;-82
2023/06/13 00:31:34;;;;;;;;;;;;;;;16.22;54.01;100499.30;108044;1254;73731;-81
2023/06/13 00:34:02;;;;;;;;;;;;;;;16.24;54.07;100500.99;108164;1254;73505;-81
2023/06/13 00:36:28;;;;;;;;;;;;;;;16.23;53.86;100496.86;108073;1257;72597;-81
2023/06/13 00:38:57;;;;;;;;;;;;;;;16.20;53.86;100495.63;108025;1254;60392;-79
2023/06/13 00:41:24;;;;;;;;;;;;;;;16.20;54.05;100492.01;108007;1253;61029;-79
2023/06/13 00:43:51;;;;;;;;;;;;;;;16.19;53.89;100486.27;107954;1257;73736;-82
2023/06/13 00:46:21;;;;;;;;;;;;;;;16.19;53.88;100489.49;108032;1254;73406;-82
2023/06/13 00:48:49;;;;;;;;;;;;;;;16.20;53.87;100485.29;107769;1256;71638;-83
2023/06/13 00:51:16;;;;;;;;;;;;;;;16.20;53.89;100487.54;107984;1254;59499;-83
2023/06/13 00:53:43;;;;;;;;;;;;;;;16.19;53.92;100489.33;107952;1254;60037;-83
2023/06/13 00:56:10;;;;;;;;;;;;;;;16.21;53.92;100487.26;108059;1254;73649;-83
2023/06/13 00:58:37;;;;;;;;;;;;;;;16.21;53.81;100488.30;108035;1258;72626;-83
2023/06/13 01:01:08;;;;;;;;;;;;;;;16.24;53.88;100487.42;108017;1254;71145;-83
2023/06/13 01:03:38;;;;;;;;;;;;;;;16.24;53.77;100482.13;107882;1254;62016;-85
2023/06/13 01:06:06;;;;;;;;;;;;;;;16.22;53.86;100485.13;108026;1253;60343;-83
2023/06/13 01:08:37;;;;;;;;;;;;;;;16.24;53.91;100484.52;107976;1254;73795;-83
2023/06/13 01:11:09;;;;;;;;;;;;;;;16.24;53.90;100484.13;107975;1254;71637;-84
2023/06/13 01:13:43;;;;;;;;;;;;;;;16.26;53.80;100479.84;108293;1254;72623;-83
2023/06/13 01:16:10;;;;;;;;;;;;;;;16.23;53.85;100482.25;100372;1257;10002262;-83
2023/06/13 01:18:38;;;;;;;;;;;;;;;16.22;53.86;100479.52;100525;1254;10002053;-83
2023/06/13 01:21:06;;;;;;;;;;;;;;;16.21;53.86;100482.49;108153;1254;60356;-83
2023/06/13 01:23:37;;;;;;;;;;;;;;;16.21;53.89;100478.40;108008;1254;60348;-83
2023/06/13 01:26:35;;;;;;;;;;;;;;;16.20;53.98;100475.80;107839;1254;72747;-83
2023/06/13 01:29:03;;;;;;;;;;;;;;;16.16;53.89;100475.73;107919;1254;72689;-82
2023/06/13 01:31:30;;;;;;;;;;;;;;;16.14;53.99;100477.34;108017;1254;72479;-83
2023/06/13 01:33:58;;;;;;;;;;;;;;;16.13;54.07;100475.30;107730;1254;61519;-83
2023/06/13 01:36:25;;;;;;;;;;;;;;;16.14;54.04;100474.90;107971;1254;60305;-84
2023/06/13 01:38:52;;;;;;;;;;;;;;;16.12;54.04;100471.55;107914;1256;74036;-82
2023/06/13 01:41:19;;;;;;;;;;;;;;;16.11;54.05;100473.23;107993;1253;72800;-82
2023/06/13 01:43:46;;;;;;;;;;;;;;;16.11;54.04;100472.21;108781;1254;71298;-81
2023/06/13 01:46:30;;;;;;;;;;;;;;;16.11;54.10;100473.84;108055;1253;61990;-81
2023/06/13 01:49:06;;;;;;;;;;;;;;;16.09;54.15;100477.21;108067;1256;60029;-82
2023/06/13 01:51:34;;;;;;;;;;;;;;;16.08;54.26;100476.52;108057;1254;72689;-83
2023/06/13 01:54:03;;;;;;;;;;;;;;;16.11;54.32;100475.23;107974;1253;72559;-83
2023/06/13 01:56:31;;;;;;;;;;;;;;;16.13;54.32;100476.38;108044;1254;72686;-83
2023/06/13 01:59:08;;;;;;;;;;;;;;;16.14;54.27;100477.50;107935;1254;60315;-83
2023/06/13 02:01:38;;;;;;;;;;;;;;;16.11;54.14;100477.27;108623;1254;58820;-83
2023/06/13 02:04:08;;;;;;;;;;;;;;;16.09;54.09;100477.16;108764;1254;72556;-83
2023/06/13 02:06:36;;;;;;;;;;;;;;;16.09;54.12;100474.89;108728;1254;71410;-82
2023/06/13 02:09:04;;;;;;;;;;;;;;;16.09;54.14;100472.36;108648;1254;71578;-83
2023/06/13 02:11:31;;;;;;;;;;;;;;;16.09;54.06;100476.67;108489;1254;60518;-82
2023/06/13 02:13:58;;;;;;;;;;;;;;;16.09;54.07;100477.59;108298;1259;61040;-82
2023/06/13 02:16:29;;;;;;;;;;;;;;;16.10;53.98;100482.27;108076;1254;72714;-83
2023/06/13 02:18:58;;;;;;;;;;;;;;;16.11;54.01;100482.55;108008;1257;73188;-82
2023/06/13 02:21:25;;;;;;;;;;;;;;;16.12;53.99;100482.49;107995;1257;71594;-82
2023/06/13 02:23:52;;;;;;;;;;;;;;;16.13;53.97;100481.36;108148;1254;60507;-82
2023/06/13 02:26:19;;;;;;;;;;;;;;;16.13;53.83;100484.08;108136;1254;59244;-82
2023/06/13 02:28:48;;;;;;;;;;;;;;;16.12;53.88;100483.95;108002;1253;74300;-82
2023/06/13 02:31:17;;;;;;;;;;;;;;;16.11;53.76;100484.11;108046;1254;72561;-82
2023/06/13 02:33:44;;;;;;;;;;;;;;;16.07;53.74;100483.80;107986;1253;72427;-82
2023/06/13 02:36:11;;;;;;;;;;;;;;;16.04;53.53;100483.98;107974;1255;61777;-82
2023/06/13 02:38:41;;;;;;;;;;;;;;;16.03;53.59;100485.45;108109;1254;60100;-82
2023/06/13 02:41:08;;;;;;;;;;;;;;;16.02;53.64;100483.19;108015;1259;73954;-83
2023/06/13 02:43:35;;;;;;;;;;;;;;;16.03;53.71;100483.19;108037;1254;72536;-83
2023/06/13 02:46:02;;;;;;;;;;;;;;;16.05;53.61;100482.77;108165;1256;71173;-82
2023/06/13 02:48:29;;;;;;;;;;;;;;;16.06;53.60;100482.34;108169;1254;61975;-82
2023/06/13 02:50:57;;;;;;;;;;;;;;;16.06;53.60;100481.96;108227;1254;60305;-82
2023/06/13 02:53:24;;;;;;;;;;;;;;;16.06;53.59;100479.91;108126;1257;73622;-82
2023/06/13 02:55:52;;;;;;;;;;;;;;;16.04;53.62;100479.13;108272;1254;72747;-82
2023/06/13 02:58:20;;;;;;;;;;;;;;;16.05;53.74;100480.99;108199;1253;72614;-81
2023/06/13 03:00:48;;;;;;;;;;;;;;;16.04;53.61;100480.59;108227;1254;60325;-82
2023/06/13 03:03:16;;;;;;;;;;;;;;;16.03;53.61;100480.83;108115;1257;60273;-83
2023/06/13 03:05:56;;;;;;;;;;;;;;;16.03;53.49;100478.98;108141;1254;73705;-82
2023/06/13 03:08:26;;;;;;;;;;;;;;;16.03;53.53;100477.05;108172;1254;72786;-82
2023/06/13 03:10:55;;;;;;;;;;;;;;;16.02;53.53;100478.45;108236;1254;72736;-82
2023/06/13 03:13:23;;;;;;;;;;;;;;;16.00;53.59;100475.91;108104;1255;61821;-83
2023/06/13 03:15:52;;;;;;;;;;;;;;;16.00;53.68;100475.80;108147;1257;60309;-82
2023/06/13 03:18:20;;;;;;;;;;;;;;;15.99;53.64;100475.23;108183;1254;73755;-82
2023/06/13 03:20:47;;;;;;;;;;;;;;;15.96;53.55;100479.91;108186;1253;71789;-81
2023/06/13 03:23:16;;;;;;;;;;;;;;;15.98;53.42;100481.16;108285;1254;71438;-82
2023/06/13 03:25:43;;;;;;;;;;;;;;;16.01;53.55;100487.64;108196;1258;61100;-81
2023/06/13 03:28:11;;;;;;;;;;;;;;;16.04;53.66;100485.98;108132;1254;60530;-82
2023/06/13 03:30:38;;;;;;;;;;;;;;;16.06;53.47;100486.04;108176;1258;73814;-83
2023/06/13 03:33:06;;;;;;;;;;;;;;;16.09;53.56;100489.98;108197;1254;73100;-83
2023/06/13 03:35:38;;;;;;;;;;;;;;;16.14;53.66;100487.95;108209;1254;72501;-83
2023/06/13 03:38:06;;;;;;;;;;;;;;;16.18;53.57;100489.05;108218;1254;60447;-82
2023/06/13 03:40:32;;;;;;;;;;;;;;;16.21;53.46;100488.96;108045;1254;60341;-83
2023/06/13 03:42:59;;;;;;;;;;;;;;;16.24;53.19;100496.30;108200;1254;73745;-83
2023/06/13 03:45:27;;;;;;;;;;;;;;;16.25;53.21;100494.23;108157;1254;71531;-83
2023/06/13 03:47:55;;;;;;;;;;;;;;;16.29;53.23;100492.82;108166;1254;72529;-83
2023/06/13 03:50:23;;;;;;;;;;;;;;;16.32;53.14;100492.92;108227;1254;60404;-83
2023/06/13 03:52:49;;;;;;;;;;;;;;;16.33;52.95;100494.91;108152;1254;60336;-82
2023/06/13 03:55:18;;;;;;;;;;;;;;;16.32;53.09;100497.67;108228;1254;73589;-83
2023/06/13 03:57:46;;;;;;;;;;;;;;;16.31;53.04;100498.48;108225;1254;72736;-82
2023/06/13 04:00:13;;;;;;;;;;;;;;;16.29;52.79;100493.91;108213;1254;72389;-84
2023/06/13 04:02:41;;;;;;;;;;;;;;;16.29;52.73;100491.27;108170;1254;61803;-83
2023/06/13 04:05:12;;;;;;;;;;;;;;;16.30;52.88;100491.02;108242;1254;60434;-83
2023/06/13 04:07:40;;;;;;;;;;;;;;;16.32;52.76;100486.23;108174;1254;73824;-83
2023/06/13 04:10:07;;;;;;;;;;;;;;;16.34;52.85;100483.02;107993;1254;72740;-84
2023/06/13 04:12:35;;;;;;;;;;;;;;;16.34;52.72;100487.13;108159;1254;71580;-82
2023/06/13 04:15:02;;;;;;;;;;;;;;;16.37;52.79;100491.16;108245;1254;61781;-83
2023/06/13 04:17:31;;;;;;;;;;;;;;;16.41;52.70;100496.10;108220;1254;60335;-83
2023/06/13 04:19:59;;;;;;;;;;;;;;;16.48;52.78;100500.05;108235;1254;72852;-82
2023/06/13 04:22:27;;;;;;;;;;;;;;;16.55;52.54;100499.95;108265;1254;72881;-81
2023/06/13 04:24:54;;;;;;;;;;;;;;;16.60;52.60;100501.48;108010;1256;72533;-82
2023/06/13 04:27:27;;;;;;;;;;;;;;;16.63;52.37;100500.05;108026;1254;60771;-82
2023/06/13 04:29:59;;;;;;;;;;;;;;;16.65;52.31;100498.48;108029;1254;60543;-83
2023/06/13 04:32:28;;;;;;;;;;;;;;;16.67;52.26;100499.69;108173;1258;73550;-83
2023/06/13 04:34:58;;;;;;;;;;;;;;;16.67;52.35;100505.77;108089;1254;72491;-83
2023/06/13 04:37:30;;;;;;;;;;;;;;;16.69;52.38;100504.59;108109;1254;72489;-82
2023/06/13 04:39:58;;;;;;;;;;;;;;;16.72;51.94;100502.60;108025;1254;60442;-83
2023/06/13 04:42:26;;;;;;;;;;;;;;;16.70;51.70;100505.02;108156;1253;60342;-83
2023/06/13 04:44:55;;;;;;;;;;;;;;;16.72;51.93;100506.27;108146;1254;73849;-82
2023/06/13 04:47:26;;;;;;;;;;;;;;;16.76;52.11;100509.46;108163;1253;71589;-82
2023/06/13 04:50:01;;;;;;;;;;;;;;;16.82;52.11;100506.84;108172;1254;72675;-82
2023/06/13 04:52:34;;;;;;;;;;;;;;;16.89;52.12;100507.84;108117;1255;60428;-81
2023/06/13 04:55:04;;;;;;;;;;;;;;;16.93;51.79;100507.88;108086;1254;60264;-81
2023/06/13 04:57:31;;;;;;;;;;;;;;;16.94;51.74;100509.05;108170;1254;73550;-83
2023/06/13 04:59:58;;;;;;;;;;;;;;;16.99;51.79;100507.17;108168;1254;72800;-82
2023/06/13 05:02:25;;;;;;;;;;;;;;;17.05;52.01;100506.02;108176;1254;72176;-82
2023/06/13 05:04:55;;;;;;;;;;;;;;;17.13;52.06;100504.89;108199;1257;60347;-82
2023/06/13 05:07:24;;;;;;;;;;;;;;;17.19;51.96;100509.72;108252;1254;59650;-82
2023/06/13 05:09:51;;;;;;;;;;;;;;;17.27;51.83;100507.36;108247;1259;74098;-82
2023/06/13 05:12:18;;;;;;;;;;;;;;;17.35;51.60;100500.25;108190;1254;72769;-82
2023/06/13 05:14:44;;;;;;;;;;;;;;;17.42;51.45;100497.14;108191;1254;70802;-81
2023/06/13 05:17:12;;;;;;;;;;;;;;;17.49;51.39;100498.77;108153;1254;60741;-84
2023/06/13 05:19:39;;;;;;;;;;;;;;;17.58;51.38;100496.77;108213;1257;60300;-84
2023/06/13 05:22:07;;;;;;;;;;;;;;;17.67;51.48;100496.46;108181;1254;73832;-82
2023/06/13 05:24:35;;;;;;;;;;;;;;;17.76;51.16;100495.88;108167;1254;71808;-81
2023/06/13 05:27:02;;;;;;;;;;;;;;;17.83;50.90;100497.03;108157;1259;72708;-81
2023/06/13 05:29:29;;;;;;;;;;;;;;;17.88;50.41;100493.83;108155;1257;60335;-82
2023/06/13 05:31:57;;;;;;;;;;;;;;;17.92;50.00;100492.66;108172;1254;60215;-80
2023/06/13 05:34:24;;;;;;;;;;;;;;;17.94;49.78;100486.94;108115;1258;73596;-82
2023/06/13 05:36:51;;;;;;;;;;;;;;;17.96;49.55;100487.04;108114;1254;72531;-83
2023/06/13 05:39:18;;;;;;;;;;;;;;;18.00;49.63;100479.60;108163;1255;72693;-83
2023/06/13 05:41:45;;;;;;;;;;;;;;;18.06;49.65;100484.11;108174;1254;60419;-83
2023/06/13 05:44:13;;;;;;;;;;;;;;;18.14;49.82;100479.14;108126;1254;60365;-84
2023/06/13 05:46:41;;;;;;;;;;;;;;;18.26;49.64;100482.23;108095;1254;73859;-83
2023/06/13 05:49:08;;;;;;;;;;;;;;;18.38;49.18;100479.45;108195;1254;73261;-83
2023/06/13 05:51:36;;;;;;;;;;;;;;;18.46;49.08;100479.40;108253;1254;72625;-82
2023/06/13 05:54:04;;;;;;;;;;;;;;;18.59;48.85;100480.09;108202;1254;60484;-82
2023/06/13 05:56:33;;;;;;;;;;;;;;;18.70;48.77;100480.81;108161;1258;60534;-82
2023/06/13 05:59:00;;;;;;;;;;;;;;;18.79;48.37;100485.19;108161;1254;72719;-83
2023/06/13 06:01:29;;;;;;;;;;;;;;;18.87;48.48;100486.77;108305;1254;72394;-83
2023/06/13 06:03:56;;;;;;;;;;;;;;;18.96;48.36;100482.80;108089;1254;72638;-83
2023/06/13 06:06:23;;;;;;;;;;;;;;;19.07;48.15;100480.11;108107;1254;60397;-83
2023/06/13 06:08:50;;;;;;;;;;;;;;;19.23;48.09;100478.53;108253;1254;60375;-82
2023/06/13 06:11:17;;;;;;;;;;;;;;;19.42;47.62;100476.73;108165;1254;72582;-82
2023/06/13 06:13:43;;;;;;;;;;;;;;;19.57;47.18;100475.23;108029;1257;72545;-83
2023/06/13 06:16:11;;;;;;;;;;;;;;;19.69;47.38;100474.11;108160;1254;73117;-83
2023/06/13 06:18:38;;;;;;;;;;;;;;;19.83;47.36;100471.96;108171;1255;60332;-83
2023/06/13 06:21:06;;;;;;;;;;;;;;;19.97;46.87;100472.94;108110;1255;61708;-83
2023/06/13 06:23:33;;;;;;;;;;;;;;;20.10;46.52;100469.98;108092;1254;73851;-84
2023/06/13 06:26:00;;;;;;;;;;;;;;;20.20;45.80;100473.13;108201;1254;71132;-83
2023/06/13 06:28:28;;;;;;;;;;;;;;;20.32;45.51;100476.48;108139;1255;72693;-83
2023/06/13 06:30:55;;;;;;;;;;;;;;;20.45;45.55;100475.99;108202;1255;60391;-85
2023/06/13 06:33:22;;;;;;;;;;;;;;;20.62;45.03;100469.23;108219;1254;60523;-84
2023/06/13 06:35:48;;;;;;;;;;;;;;;20.79;44.89;100470.04;108201;1254;73698;-83
2023/06/13 06:38:15;;;;;;;;;;;;;;;20.89;44.30;100467.31;108121;1254;72583;-83
2023/06/13 06:40:42;;;;;;;;;;;;;;;20.91;44.04;100468.10;108071;1258;73213;-83
2023/06/13 06:43:09;;;;;;;;;;;;;;;20.84;43.89;100469.93;108158;1259;60309;-83
2023/06/13 06:45:37;;;;;;;;;;;;;;;20.72;43.44;100467.50;108196;1257;60031;-85
2023/06/13 06:48:04;;;;;;;;;;;;;;;20.64;43.97;100460.67;108257;1254;73764;-83
2023/06/13 06:50:30;;;;;;;;;;;;;;;20.65;43.82;100459.99;108226;1255;73005;-82
2023/06/13 06:52:57;;;;;;;;;;;;;;;20.66;43.91;100460.91;108120;1254;72707;-84
2023/06/13 06:55:24;;;;;;;;;;;;;;;20.73;43.79;100461.75;108205;1256;60399;-83
2023/06/13 06:57:53;;;;;;;;;;;;;;;20.82;44.30;100462.27;108216;1255;60306;-82
2023/06/13 07:00:21;;;;;;;;;;;;;;;20.94;44.03;100465.91;108059;1254;73831;-82
2023/06/13 07:02:48;;;;;;;;;;;;;;;21.08;43.73;100461.92;108252;1254;72877;-83
2023/06/13 07:05:15;;;;;;;;;;;;;;;21.18;43.67;100459.52;108067;1254;71672;-83
2023/06/13 07:07:44;;;;;;;;;;;;;;;21.27;44.12;100456.35;108129;1254;60431;-83
2023/06/13 07:10:11;;;;;;;;;;;;;;;21.31;43.98;100456.89;108218;1255;60423;-83
2023/06/13 07:12:38;;;;;;;;;;;;;;;21.28;43.57;100451.82;108206;1254;73847;-83
2023/06/13 07:15:05;;;;;;;;;;;;;;;21.19;43.82;100451.88;108246;1259;72523;-83
2023/06/13 07:17:32;;;;;;;;;;;;;;;21.10;44.43;100451.77;108111;1254;72336;-84
2023/06/13 07:19:59;;;;;;;;;;;;;;;21.12;43.98;100449.50;108178;1259;60435;-83
2023/06/13 07:22:26;;;;;;;;;;;;;;;21.10;43.73;100445.86;108145;1255;60425;-81
2023/06/13 07:24:53;;;;;;;;;;;;;;;21.04;44.00;100450.83;108177;1258;73845;-82
2023/06/13 07:27:20;;;;;;;;;;;;;;;20.98;44.24;100452.70;108255;1258;72732;-81
2023/06/13 07:29:47;;;;;;;;;;;;;;;20.98;44.42;100451.77;108220;1259;72670;-83
2023/06/13 07:32:14;;;;;;;;;;;;;;;21.02;44.44;100450.21;108230;1256;60387;-82
2023/06/13 07:34:41;;;;;;;;;;;;;;;21.14;43.79;100448.91;108100;1254;60431;-83
2023/06/13 07:37:28;;;;;;;;;;;;;;;21.21;43.37;100448.45;108174;1257;73674;-84
2023/06/13 07:39:55;;;;;;;;;;;;;;;21.28;43.10;100453.30;107987;1254;173020;-81
2023/06/13 07:42:23;;;;;;;;;;;;;;;21.30;43.30;100457.42;108118;1254;72551;-82
2023/06/13 07:44:50;;;;;;;;;;;;;;;21.36;43.30;100454.55;108088;1254;60203;-83
2023/06/13 07:47:18;;;;;;;;;;;;;;;21.48;43.20;100448.84;108171;1254;60299;-83
2023/06/13 07:49:47;;;;;;;;;;;;;;;21.61;43.06;100449.86;108152;1254;74201;-83
2023/06/13 07:52:14;;;;;;;;;;;;;;;21.69;42.77;100455.42;108178;1254;72114;-82
2023/06/13 07:54:41;;;;;;;;;;;;;;;21.74;43.03;100452.97;108058;1254;71500;-82
2023/06/13 07:57:07;;;;;;;;;;;;;;;21.76;42.89;100455.98;108052;1254;60332;-83
2023/06/13 07:59:55;;;;;;;;;;;;;;;21.78;42.76;100458.31;108152;1254;60447;-82
2023/06/13 08:02:23;;;;;;;;;;;;;;;21.81;42.99;100457.00;108154;1255;73814;-84
2023/06/13 08:04:50;;;;;;;;;;;;;;;21.77;41.93;100453.63;108172;1254;73128;-83
2023/06/13 08:07:21;;;;;;;;;;;;;;;21.69;42.67;100457.50;108102;1255;72442;-81
2023/06/13 08:09:47;;;;;;;;;;;;;;;21.66;42.02;100451.77;108084;1258;60203;-83
2023/06/13 08:12:15;;;;;;;;;;;;;;;21.60;42.37;100454.01;108027;1254;59880;-82
2023/06/13 08:14:42;;;;;;;;;;;;;;;21.56;42.40;100455.41;108013;1254;73630;-83
2023/06/13 08:17:09;;;;;;;;;;;;;;;21.55;42.40;100454.29;108042;1254;72716;-82
2023/06/13 08:19:36;;;;;;;;;;;;;;;21.60;42.49;100456.41;107926;1254;71633;-83
2023/06/13 08:22:05;;;;;;;;;;;;;;;21.66;41.93;100456.48;108086;1254;60197;-81
2023/06/13 08:24:32;;;;;;;;;;;;;;;21.72;42.40;100452.80;108096;1254;59861;-82
2023/06/13 08:26:59;;;;;;;;;;;;;;;21.86;42.22;100456.00;108127;1254;73805;-82
2023/06/13 08:29:28;;;;;;;;;;;;;;;21.97;41.74;100452.94;108093;1254;72669;-82
2023/06/13 08:31:55;;;;;;;;;;;;;;;21.98;40.95;100455.03;108194;1254;72497;-81
2023/06/13 08:34:23;;;;;;;;;;;;;;;21.92;41.07;100458.40;108078;1254;60440;-82
2023/06/13 08:36:50;;;;;;;;;;;;;;;21.92;41.47;100462.98;108123;1254;60759;-82
2023/06/13 08:39:17;;;;;;;;;;;;;;;21.93;41.16;100462.03;108129;1254;73674;-83
2023/06/13 08:41:44;;;;;;;;;;;;;;;21.90;41.30;100461.28;108116;1254;72847;-82
2023/06/13 08:44:11;;;;;;;;;;;;;;;21.89;41.71;100456.52;108141;1254;72471;-83
2023/06/13 08:46:38;;;;;;;;;;;;;;;21.89;41.82;100459.48;108152;1254;60382;-82
2023/06/13 08:49:05;;;;;;;;;;;;;;;21.95;41.32;100454.94;108050;1254;60438;-83
2023/06/13 08:51:32;;;;;;;;;;;;;;;21.94;41.13;100450.41;108154;1254;72854;-83
2023/06/13 08:54:05;;;;;;;;;;;;;;;21.87;41.46;100453.73;108138;1254;72726;-82
2023/06/13 08:56:42;;;;;;;;;;;;;;;21.83;41.53;100454.75;108146;1254;72690;-82
2023/06/13 08:59:15;;;;;;;;;;;;;;;21.77;41.06;100455.11;108389;1254;60335;-84
2023/06/13 09:01:43;;;;;;;;;;;;;;;21.80;41.49;100458.55;108227;1254;60337;-83
2023/06/13 09:04:10;;;;;;;;;;;;;;;21.89;41.50;100458.91;108229;1254;74603;-83
2023/06/13 09:06:38;;;;;;;;;;;;;;;22.00;41.18;100463.50;108200;1254;72626;-83
2023/06/13 09:09:08;;;;;;;;;;;;;;;22.04;41.02;100465.89;108112;1254;72486;-81
2023/06/13 09:11:35;;;;;;;;;;;;;;;22.07;40.46;100466.05;108106;1254;60420;-83
2023/06/13 09:14:03;;;;;;;;;;;;;;;22.12;40.89;100464.45;108147;1254;60281;-83
2023/06/13 09:16:30;;;;;;;;;;;;;;;22.21;41.77;100459.73;108056;1254;73844;-82
2023/06/13 09:18:58;;;;;;;;;;;;;;;22.32;41.18;100459.53;108205;1254;73807;-84
2023/06/13 09:21:25;;;;;;;;;;;;;;;22.32;40.09;100458.40;108089;1254;72513;-83
2023/06/13 09:23:54;;;;;;;;;;;;;;;22.22;39.91;100460.23;108078;1254;60630;-82
2023/06/13 09:26:21;;;;;;;;;;;;;;;22.12;40.11;100457.30;108273;1253;59924;-84
2023/06/13 09:28:50;;;;;;;;;;;;;;;22.09;40.63;100459.15;108232;1254;72782;-83
2023/06/13 09:31:17;;;;;;;;;;;;;;;22.11;41.26;100459.77;108202;1254;73031;-82
2023/06/13 09:33:44;;;;;;;;;;;;;;;22.05;41.32;100455.20;108056;1254;71830;-81
2023/06/13 09:36:11;;;;;;;;;;;;;;;21.92;41.49;100460.42;108116;1254;60075;-82
2023/06/13 09:38:41;;;;;;;;;;;;;;;21.73;41.85;100464.89;108081;1254;60454;-83
2023/06/13 09:41:10;;;;;;;;;;;;;;;21.52;42.09;100467.02;108119;1254;73797;-82
2023/06/13 09:43:38;;;;;;;;;;;;;;;21.41;42.41;100469.16;108147;1254;72561;-82
2023/06/13 09:46:05;;;;;;;;;;;;;;;21.38;42.90;100472.16;108114;1254;72422;-83
2023/06/13 09:48:33;;;;;;;;;;;;;;;21.42;43.32;100474.59;108126;1254;60452;-82
2023/06/13 09:51:20;;;;;;;;;;;;;;;21.43;42.18;100472.97;108169;1254;60409;-83
2023/06/13 09:53:48;;;;;;;;;;;;;;;21.34;42.15;100474.25;108178;1257;73885;-83
2023/06/13 09:56:15;;;;;;;;;;;;;;;21.32;42.89;100479.04;108103;1254;72563;-82
2023/06/13 09:58:42;;;;;;;;;;;;;;;21.38;42.78;100476.43;108148;1254;72740;-82
2023/06/13 10:01:15;;;;;;;;;;;;;;;21.47;42.97;100475.37;108139;1254;60391;-83
2023/06/13 10:03:43;;;;;;;;;;;;;;;21.52;42.82;100477.29;108131;1254;60405;-82
2023/06/13 10:06:10;;;;;;;;;;;;;;;21.51;42.68;100477.32;108042;1254;72587;-82
2023/06/13 10:08:38;;;;;;;;;;;;;;;21.44;42.29;100476.11;108095;1254;72788;-81
2023/06/13 10:11:23;;;;;;;;;;;;;;;21.31;42.26;100475.70;108109;1254;73080;-82
2023/06/13 10:14:03;;;;;;;;;;;;;;;21.26;42.48;100475.82;108085;1254;60859;-82
2023/06/13 10:16:35;;;;;;;;;;;;;;;21.25;42.56;100475.52;108047;1254;60338;-82
2023/06/13 10:19:02;;;;;;;;;;;;;;;21.21;42.46;100474.67;108015;1254;73111;-83
2023/06/13 10:21:29;;;;;;;;;;;;;;;21.28;42.82;100471.84;108104;1254;72737;-82
2023/06/13 10:24:10;;;;;;;;;;;;;;;21.44;43.00;100469.27;108178;1254;72872;-82
2023/06/13 10:26:41;;;;;;;;;;;;;;;21.62;42.87;100464.83;108070;1254;60309;-82
2023/06/13 10:29:14;;;;;;;;;;;;;;;21.65;42.02;100471.29;108196;1254;59181;-83
2023/06/13 10:31:59;;;;;;;;;;;;;;;21.68;42.23;100473.10;108187;1254;73919;-83
2023/06/13 10:34:35;;;;;;;;;;;;;;;21.74;42.16;100471.40;108223;1254;72581;-83
2023/06/13 10:37:20;;;;;;;;;;;;;;;21.78;42.13;100466.18;108135;1254;71408;-83
2023/06/13 10:40:04;;;;;;;;;;;;;;;21.85;42.44;100470.50;108054;1254;60420;-83
2023/06/13 10:42:36;;;;;;;;;;;;;;;21.84;41.93;100463.88;108109;1254;60283;-83
2023/06/13 10:45:03;;;;;;;;;;;;;;;21.82;42.23;100468.39;108115;1254;73869;-82
2023/06/13 10:47:30;;;;;;;;;;;;;;;21.86;43.17;100467.77;108003;1254;72604;-82
2023/06/13 10:49:58;;;;;;;;;;;;;;;21.97;42.29;100465.96;108097;1253;72735;-82
2023/06/13 10:52:25;;;;;;;;;;;;;;;22.11;41.64;100462.80;108016;1254;60431;-81
2023/06/13 10:54:53;;;;;;;;;;;;;;;22.19;41.42;100461.94;108082;1254;60349;-84
2023/06/13 10:57:20;;;;;;;;;;;;;;;22.21;41.95;100457.86;108042;1254;72584;-83
2023/06/13 10:59:49;;;;;;;;;;;;;;;22.22;41.28;100461.02;108096;1254;72767;-81
2023/06/13 11:02:16;;;;;;;;;;;;;;;22.27;40.88;100456.29;108051;1254;71209;-83
2023/06/13 11:04:50;;;;;;;;;;;;;;;22.27;40.85;100457.59;108057;1253;60472;-82
2023/06/13 11:07:20;;;;;;;;;;;;;;;22.26;40.73;100461.84;108167;1253;60383;-83
2023/06/13 11:10:03;;;;;;;;;;;;;;;22.30;40.92;100459.07;108073;1254;73849;-82
2023/06/13 11:12:31;;;;;;;;;;;;;;;22.43;40.52;100458.50;108055;1254;72698;-83
2023/06/13 11:14:59;;;;;;;;;;;;;;;22.58;40.32;100458.46;108107;1254;72573;-83
2023/06/13 11:17:26;;;;;;;;;;;;;;;22.72;40.11;100458.73;108097;1254;60418;-83
2023/06/13 11:19:53;;;;;;;;;;;;;;;22.69;39.75;100457.55;108196;1254;60405;-84
2023/06/13 11:22:21;;;;;;;;;;;;;;;22.73;40.29;100454.33;108173;1254;73873;-80
2023/06/13 11:24:48;;;;;;;;;;;;;;;22.86;40.14;100449.31;108081;1254;71410;-82
2023/06/13 11:27:17;;;;;;;;;;;;;;;22.95;40.24;100444.91;108017;1254;72512;-84
2023/06/13 11:29:45;;;;;;;;;;;;;;;22.95;39.76;100441.20;108071;1253;60356;-84
2023/06/13 11:32:11;;;;;;;;;;;;;;;22.97;39.50;100433.45;108136;1254;60361;-83
2023/06/13 11:34:39;;;;;;;;;;;;;;;22.95;39.99;100430.97;108091;1254;73870;-81
2023/06/13 11:37:25;;;;;;;;;;;;;;;22.90;39.77;100429.80;108035;1253;72452;-82
2023/06/13 11:39:55;;;;;;;;;;;;;;;22.88;39.99;100429.52;108006;1254;72679;-84
2023/06/13 11:42:43;;;;;;;;;;;;;;;22.95;39.80;100433.24;108188;1254;60309;-81
2023/06/13 11:45:10;;;;;;;;;;;;;;;22.95;39.47;100434.50;108117;1254;60174;-83
2023/06/13 11:47:37;;;;;;;;;;;;;;;22.92;39.91;100439.73;108156;1257;73954;-82
2023/06/13 11:50:28;;;;;;;;;;;;;;;22.85;39.70;100447.55;108097;1254;72737;-82
2023/06/13 11:56:07;;;;;;;;;;;;;;;22.74;39.56;100447.59;108231;1254;60293;-83
2023/06/13 11:58:35;;;;;;;;;;;;;;;22.68;39.56;100448.38;108108;1254;60346;-82
2023/06/13 12:01:01;;;;;;;;;;;;;;;22.75;39.97;100441.96;108218;1254;72467;-83
2023/06/13 12:03:47;;;;;;;;;;;;;;;22.87;39.78;100443.79;108130;1254;72583;-82
2023/06/13 12:09:21;;;;;;;;;;;;;;;23.01;41.03;100442.23;108129;1253;60485;-84
2023/06/13 12:11:49;;;;;;;;;;;;;;;23.13;40.60;100436.35;108116;1253;60261;-83
2023/06/13 12:14:19;;;;;;;;;;;;;;;23.21;39.11;100437.67;108107;1254;73723;-82
2023/06/13 12:16:46;;;;;;;;;;;;;;;23.15;38.65;100435.47;108154;1253;72803;-83
2023/06/13 12:19:14;;;;;;;;;;;;;;;23.03;39.13;100431.39;108128;1253;72783;-84
2023/06/13 12:21:41;;;;;;;;;;;;;;;22.96;39.03;100429.23;108221;1254;60437;-84
2023/06/13 12:24:08;;;;;;;;;;;;;;;22.82;39.42;100427.31;108194;1254;60373;-82
2023/06/13 12:26:36;;;;;;;;;;;;;;;22.75;39.55;100430.51;108224;1254;72541;-83
2023/06/13 12:29:07;;;;;;;;;;;;;;;22.75;39.56;100426.23;108185;1254;71398;-83
2023/06/13 12:31:37;;;;;;;;;;;;;;;22.82;39.40;100424.35;108327;1254;72543;-82
2023/06/13 12:34:04;;;;;;;;;;;;;;;22.78;39.57;100424.91;108474;1254;60379;-83
2023/06/13 12:37:11;;;;;;;;;;;;;;;22.83;39.79;100422.20;108842;1253;59962;-82
2023/06/13 12:39:57;;;;;;;;;;;;;;;23.01;39.67;100424.39;108354;1253;72385;-83
2023/06/13 12:42:25;;;;;;;;;;;;;;;23.04;39.25;100422.92;108673;1254;71523;-83